createdAt,value
2022-10-04T00:01:52.531Z,25.53
2022-10-04T00:04:25.078Z,25.56
2022-10-04T00:07:04.069Z,25.60
2022-10-04T00:09:36.133Z,25.61
2022-10-04T00:12:05.712Z,25.51
2022-10-04T00:14:39.539Z,25.59
2022-10-04T00:17:18.267Z,25.65
2022-10-04T00:19:47.702Z,25.68
2022-10-04T00:22:17.354Z,25.73
2022-10-04T00:25:13.849Z,25.74
2022-10-04T00:28:19.230Z,25.65
2022-10-04T00:31:15.886Z,25.81
2022-10-04T00:33:50.329Z,25.76
2022-10-04T00:36:25.928Z,25.74
2022-10-04T00:39:03.839Z,25.75
2022-10-04T00:41:57.919Z,25.80
2022-10-04T00:44:33.910Z,25.82
2022-10-04T00:47:05.300Z,25.83
2022-10-04T00:49:40.282Z,25.94
2022-10-04T00:52:16.513Z,26.01
2022-10-04T00:54:51.011Z,25.94
2022-10-04T00:57:35.467Z,26.00
2022-10-04T01:00:08.240Z,25.96
2022-10-04T01:02:58.608Z,25.92
2022-10-04T01:05:29.141Z,25.92
2022-10-04T01:08:08.449Z,25.92
2022-10-04T01:10:45.856Z,25.89
2022-10-04T01:13:19.131Z,25.82
2022-10-04T01:16:11.622Z,25.84
2022-10-04T01:18:38.445Z,25.76
2022-10-04T01:21:20.853Z,25.79
2022-10-04T01:23:57.199Z,25.73
2022-10-04T01:26:26.768Z,25.70
2022-10-04T01:28:55.187Z,25.71
2022-10-04T01:31:23.046Z,25.40
2022-10-04T01:33:49.988Z,25.34
2022-10-04T01:36:16.668Z,25.35
2022-10-04T01:38:43.317Z,25.23
2022-10-04T01:41:14.636Z,25.32
2022-10-04T01:43:43.971Z,25.25
2022-10-04T01:46:20.783Z,25.26
2022-10-04T01:48:47.428Z,25.14
2022-10-04T01:51:21.428Z,24.92
2022-10-04T01:53:54.460Z,25.02
2022-10-04T01:56:30.203Z,25.19
2022-10-04T01:59:03.864Z,25.31
2022-10-04T02:01:34.723Z,25.09
2022-10-04T02:04:08.543Z,24.98
2022-10-04T02:06:39.095Z,25.10
2022-10-04T02:09:13.763Z,24.82
2022-10-04T02:11:43.493Z,25.25
2022-10-04T02:14:17.777Z,25.40
2022-10-04T02:16:47.688Z,25.35
2022-10-04T02:19:15.777Z,25.31
2022-10-04T02:21:44.467Z,25.21
2022-10-04T02:24:12.229Z,24.90
2022-10-04T02:26:39.096Z,24.93
2022-10-04T02:29:05.715Z,24.95
2022-10-04T02:31:51.101Z,24.84
2022-10-04T02:34:19.121Z,25.03
2022-10-04T02:36:47.992Z,25.20
2022-10-04T02:39:26.501Z,25.21
2022-10-04T02:42:15.907Z,25.31
2022-10-04T02:44:50.460Z,25.22
2022-10-04T02:47:21.208Z,25.29
2022-10-04T02:49:52.589Z,25.14
2022-10-04T02:52:26.252Z,25.37
2022-10-04T02:55:30.719Z,25.21
2022-10-04T02:57:59.290Z,25.44
2022-10-04T03:00:31.868Z,25.48
2022-10-04T03:03:23.443Z,25.31
2022-10-04T03:06:00.018Z,25.39
2022-10-04T03:08:29.157Z,25.54
2022-10-04T03:10:58.660Z,25.68
2022-10-04T03:13:26.600Z,25.71
2022-10-04T03:15:53.322Z,25.66
2022-10-04T03:18:21.012Z,25.72
2022-10-04T03:20:48.709Z,25.76
2022-10-04T03:23:19.841Z,25.73
2022-10-04T03:25:59.679Z,25.63
2022-10-04T03:28:29.077Z,25.49
2022-10-04T03:30:58.041Z,25.36
2022-10-04T03:33:28.083Z,25.58
2022-10-04T03:35:57.526Z,25.61
2022-10-04T03:38:26.643Z,25.46
2022-10-04T03:41:01.108Z,25.42
2022-10-04T03:43:31.715Z,25.23
2022-10-04T03:46:01.227Z,25.35
2022-10-04T03:48:46.569Z,25.14
2022-10-04T03:51:17.510Z,24.83
2022-10-04T03:53:59.559Z,24.72
2022-10-04T03:56:35.381Z,24.69
2022-10-04T03:59:07.065Z,24.69
2022-10-04T04:01:49.018Z,24.70
2022-10-04T04:04:25.118Z,24.18
2022-10-04T04:07:00.808Z,24.46
2022-10-04T04:09:41.463Z,24.54
2022-10-04T04:12:22.154Z,24.73
2022-10-04T04:14:51.551Z,24.96
2022-10-04T04:17:27.239Z,25.08
2022-10-04T04:20:03.440Z,25.22
2022-10-04T04:22:34.139Z,25.23
2022-10-04T04:25:04.850Z,25.30
2022-10-04T04:27:36.849Z,25.14
2022-10-04T04:30:14.037Z,25.16
2022-10-04T04:32:45.702Z,25.27
2022-10-04T04:35:25.040Z,25.38
2022-10-04T04:38:17.777Z,25.14
2022-10-04T04:40:45.046Z,25.16
2022-10-04T04:43:19.207Z,25.44
2022-10-04T04:46:03.031Z,25.29
2022-10-04T04:48:36.739Z,25.28
2022-10-04T04:51:04.755Z,25.28
2022-10-04T04:53:32.131Z,25.05
2022-10-04T04:56:04.689Z,24.94
2022-10-04T04:58:43.778Z,24.99
2022-10-04T05:01:42.731Z,24.82
2022-10-04T05:04:09.617Z,24.86
2022-10-04T05:06:40.817Z,24.52
2022-10-04T05:09:24.077Z,24.66
2022-10-04T05:11:54.093Z,24.72
2022-10-04T05:14:21.144Z,24.60
2022-10-04T05:16:50.828Z,24.78
2022-10-04T05:19:22.678Z,24.92
2022-10-04T05:21:52.543Z,24.92
2022-10-04T05:24:33.051Z,24.88
2022-10-04T05:27:02.709Z,25.06
2022-10-04T05:29:38.207Z,24.78
2022-10-04T05:32:48.955Z,24.98
2022-10-04T05:35:18.665Z,24.97
2022-10-04T05:37:53.225Z,25.21
2022-10-04T05:40:34.025Z,25.34
2022-10-04T05:43:00.643Z,25.23
2022-10-04T05:45:31.028Z,25.38
2022-10-04T05:48:01.012Z,25.35
2022-10-04T05:50:35.950Z,25.30
2022-10-04T05:53:21.106Z,25.17
2022-10-04T05:55:53.018Z,25.05
2022-10-04T05:58:38.197Z,25.02
2022-10-04T06:01:11.183Z,25.05
2022-10-04T06:03:59.784Z,25.28
2022-10-04T06:06:49.869Z,25.17
2022-10-04T06:09:38.033Z,25.22
2022-10-04T06:12:33.400Z,25.14
2022-10-04T06:15:12.039Z,24.86
2022-10-04T06:17:51.067Z,25.30
2022-10-04T06:20:23.748Z,25.20
2022-10-04T06:22:58.706Z,25.23
2022-10-04T06:25:35.931Z,25.24
2022-10-04T06:28:15.886Z,25.20
2022-10-04T06:31:04.317Z,25.03
2022-10-04T06:33:48.883Z,25.48
2022-10-04T06:36:34.453Z,25.51
2022-10-04T06:39:20.452Z,25.54
2022-10-04T06:42:17.994Z,26.13
2022-10-04T06:45:01.740Z,26.49
2022-10-04T06:47:50.833Z,26.62
2022-10-04T06:50:51.703Z,27.05
2022-10-04T06:53:40.414Z,27.68
2022-10-04T06:56:32.023Z,27.66
2022-10-04T06:59:11.399Z,28.03
2022-10-04T07:01:51.861Z,28.13
2022-10-04T07:05:06.417Z,28.18
2022-10-04T07:07:37.174Z,28.53
2022-10-04T07:10:35.655Z,29.19
2022-10-04T07:13:10.969Z,30.52
2022-10-04T07:16:06.692Z,32.19
2022-10-04T07:18:54.312Z,33.69
2022-10-04T07:21:24.492Z,35.13
2022-10-04T07:23:56.409Z,35.73
2022-10-04T07:26:37.781Z,35.44
2022-10-04T07:29:22.142Z,34.05
2022-10-04T07:31:53.625Z,33.85
2022-10-04T07:34:30.720Z,33.77
2022-10-04T07:37:00.451Z,33.89
2022-10-04T07:39:40.369Z,34.31
2022-10-04T07:42:27.908Z,35.19
2022-10-04T07:45:26.821Z,36.07
2022-10-04T07:48:16.113Z,37.39
2022-10-04T07:50:48.788Z,38.30
2022-10-04T07:53:20.956Z,39.45
2022-10-04T07:56:00.591Z,40.01
2022-10-04T07:58:59.963Z,40.36
2022-10-04T08:01:26.735Z,40.85
2022-10-04T08:04:18.258Z,40.60
2022-10-04T08:07:14.973Z,40.79
2022-10-04T08:10:07.326Z,41.30
2022-10-04T08:12:52.681Z,40.55
2022-10-04T08:15:35.773Z,41.17
2022-10-04T08:18:08.800Z,40.88
2022-10-04T08:20:56.807Z,42.03
2022-10-04T08:23:56.233Z,41.71
2022-10-04T08:26:57.821Z,42.01
2022-10-04T08:29:44.773Z,41.69
2022-10-04T08:32:23.296Z,42.55
2022-10-04T08:35:08.724Z,42.29
2022-10-04T08:38:14.612Z,41.67
2022-10-04T08:41:25.080Z,42.08
2022-10-04T08:44:23.153Z,42.69
2022-10-04T08:47:05.791Z,43.18
2022-10-04T08:50:01.948Z,43.04
2022-10-04T08:52:49.718Z,42.30
2022-10-04T08:55:54.692Z,41.04
2022-10-04T08:59:00.747Z,41.92
2022-10-04T09:01:48.895Z,41.24
2022-10-04T09:04:55.801Z,40.78
2022-10-04T09:07:28.272Z,41.65
2022-10-04T09:10:16.184Z,42.35
2022-10-04T09:13:06.799Z,43.08
2022-10-04T09:15:52.167Z,42.73
2022-10-04T09:18:22.491Z,42.43
2022-10-04T09:21:01.492Z,41.23
2022-10-04T09:23:31.202Z,41.46
2022-10-04T09:26:21.041Z,41.91
2022-10-04T09:29:15.527Z,41.79
2022-10-04T09:32:15.014Z,41.92
2022-10-04T09:35:31.399Z,41.42
2022-10-04T09:38:36.007Z,41.46
2022-10-04T09:41:21.027Z,39.97
2022-10-04T09:44:06.398Z,39.46
2022-10-04T09:46:56.714Z,38.43
2022-10-04T09:49:37.722Z,38.12
2022-10-04T09:52:23.367Z,37.80
2022-10-04T09:55:27.603Z,37.79
2022-10-04T09:58:16.295Z,37.45
2022-10-04T10:00:55.771Z,36.00
2022-10-04T10:03:43.669Z,36.89
2022-10-04T10:06:22.349Z,36.11
2022-10-04T10:09:07.304Z,36.30
2022-10-04T10:12:12.986Z,36.25
2022-10-04T10:15:03.740Z,35.47
2022-10-04T10:17:45.445Z,35.55
2022-10-04T10:20:43.933Z,34.59
2022-10-04T10:23:38.700Z,34.21
2022-10-04T10:26:35.390Z,34.40
2022-10-04T10:29:13.951Z,33.97
2022-10-04T10:32:01.959Z,33.98
2022-10-04T10:34:57.197Z,33.68
2022-10-04T10:37:39.750Z,34.03
2022-10-04T10:40:39.144Z,34.81
2022-10-04T10:43:36.262Z,34.53
2022-10-04T10:46:21.627Z,33.74
2022-10-04T10:48:54.680Z,32.84
2022-10-04T10:51:42.540Z,32.93
2022-10-04T10:54:30.030Z,33.00
2022-10-04T10:57:18.485Z,32.85
2022-10-04T11:00:20.905Z,33.25
2022-10-04T11:03:22.982Z,32.90
2022-10-04T11:06:14.549Z,33.29
2022-10-04T11:09:02.298Z,33.53
2022-10-04T11:12:19.745Z,32.25
2022-10-04T11:15:14.324Z,32.28
2022-10-04T11:18:09.007Z,32.21
2022-10-04T11:21:07.756Z,32.25
2022-10-04T11:23:51.817Z,32.25
2022-10-04T11:26:30.246Z,33.24
2022-10-04T11:29:32.416Z,32.90
2022-10-04T11:32:01.782Z,33.17
2022-10-04T11:35:08.720Z,33.43
2022-10-04T11:37:53.862Z,33.71
2022-10-04T11:40:57.628Z,33.22
2022-10-04T11:43:56.769Z,33.66
2022-10-04T11:47:02.479Z,33.05
2022-10-04T11:49:52.654Z,32.90
2022-10-04T11:52:42.989Z,33.02
2022-10-04T11:55:44.892Z,32.93
2022-10-04T11:58:26.427Z,32.71
2022-10-04T12:01:11.359Z,32.49
2022-10-04T12:04:03.560Z,31.55
2022-10-04T12:07:02.918Z,31.18
2022-10-04T12:09:32.183Z,31.80
2022-10-04T12:12:35.569Z,32.23
2022-10-04T12:15:26.079Z,32.78
2022-10-04T12:18:20.063Z,33.13
2022-10-04T12:21:10.670Z,32.60
2022-10-04T12:23:59.308Z,32.71
2022-10-04T12:26:55.202Z,33.57
2022-10-04T12:29:28.786Z,33.61
2022-10-04T12:32:04.852Z,34.18
2022-10-04T12:34:49.295Z,33.58
2022-10-04T12:37:38.728Z,32.42
2022-10-04T12:40:33.077Z,32.89
2022-10-04T12:43:16.687Z,33.19
2022-10-04T12:46:12.593Z,32.76
2022-10-04T12:48:56.913Z,32.37
2022-10-04T12:51:39.913Z,32.48
2022-10-04T12:54:21.745Z,32.02
2022-10-04T12:57:14.514Z,32.40
2022-10-04T12:59:53.684Z,32.16
2022-10-04T13:02:26.444Z,32.67
2022-10-04T13:05:22.584Z,32.16
2022-10-04T13:07:58.109Z,32.09
2022-10-04T13:10:32.421Z,31.74
2022-10-04T13:13:14.752Z,31.90
2022-10-04T13:18:56.579Z,31.94
2022-10-04T13:21:43.285Z,31.71
2022-10-04T13:24:55.005Z,32.25
2022-10-04T13:27:30.300Z,32.01
2022-10-04T13:30:16.364Z,32.13
2022-10-04T13:33:02.819Z,31.35
2022-10-04T13:35:41.009Z,31.84
2022-10-04T13:38:46.255Z,32.00
2022-10-04T13:41:34.631Z,31.63
2022-10-04T13:44:17.872Z,31.60
2022-10-04T13:47:22.481Z,31.23
2022-10-04T13:50:40.663Z,30.88
2022-10-04T13:53:44.368Z,31.86
2022-10-04T13:56:38.396Z,32.67
2022-10-04T13:59:34.647Z,31.36
2022-10-04T14:02:32.580Z,32.29
2022-10-04T14:05:28.415Z,32.43
2022-10-04T14:08:32.323Z,32.18
2022-10-04T14:11:33.094Z,32.19
2022-10-04T14:14:33.064Z,31.78
2022-10-04T14:17:00.181Z,31.29
2022-10-04T14:19:58.050Z,30.90
2022-10-04T14:22:56.313Z,31.32
2022-10-04T14:25:56.645Z,31.81
2022-10-04T14:28:57.132Z,31.36
2022-10-04T14:31:37.248Z,31.92
2022-10-04T14:34:38.062Z,31.83
2022-10-04T14:37:13.504Z,31.65
2022-10-04T14:39:58.083Z,31.43
2022-10-04T14:43:00.377Z,31.39
2022-10-04T14:45:57.706Z,31.07
2022-10-04T14:48:51.059Z,30.77
2022-10-04T14:51:38.537Z,30.73
2022-10-04T14:54:29.127Z,31.24
2022-10-04T14:57:19.240Z,31.40
2022-10-04T15:00:03.544Z,30.39
2022-10-04T15:02:33.293Z,30.84
2022-10-04T15:05:31.800Z,31.08
2022-10-04T15:08:34.059Z,31.13
2022-10-04T15:11:08.097Z,30.98
2022-10-04T15:13:37.637Z,30.29
2022-10-04T15:16:08.887Z,31.22
2022-10-04T15:18:50.140Z,30.99
2022-10-04T15:21:54.401Z,30.72
2022-10-04T15:24:41.483Z,31.36
2022-10-04T15:27:29.746Z,31.22
2022-10-04T15:30:11.851Z,30.97
2022-10-04T15:32:46.320Z,30.40
2022-10-04T15:35:31.634Z,30.36
2022-10-04T15:38:24.284Z,30.80
2022-10-04T15:40:56.776Z,30.53
2022-10-04T15:43:43.114Z,30.72
2022-10-04T15:46:31.889Z,31.60
2022-10-04T15:49:37.723Z,31.80
2022-10-04T15:52:10.935Z,32.28
2022-10-04T15:55:02.815Z,32.23
2022-10-04T15:57:49.549Z,32.12
2022-10-04T16:00:25.744Z,32.15
2022-10-04T16:03:29.891Z,32.16
2022-10-04T16:06:02.543Z,32.39
2022-10-04T16:08:41.688Z,32.28
2022-10-04T16:11:46.233Z,32.16
2022-10-04T16:14:37.243Z,31.57
2022-10-04T16:17:19.015Z,31.48
2022-10-04T16:19:59.938Z,31.61
2022-10-04T16:22:33.571Z,31.38
2022-10-04T16:25:25.344Z,31.55
2022-10-04T16:27:55.961Z,31.63
2022-10-04T16:30:27.876Z,31.74
2022-10-04T16:32:58.233Z,31.74
2022-10-04T16:35:48.464Z,31.44
2022-10-04T16:38:25.584Z,31.58
2022-10-04T16:40:52.374Z,31.55
2022-10-04T16:43:18.867Z,31.46
2022-10-04T16:46:16.941Z,31.03
2022-10-04T16:48:57.501Z,30.97
2022-10-04T16:51:32.923Z,30.85
2022-10-04T16:54:31.601Z,30.95
2022-10-04T16:56:58.128Z,30.31
2022-10-04T16:59:37.275Z,30.48
2022-10-04T17:02:25.655Z,30.45
2022-10-04T17:05:00.207Z,30.34
2022-10-04T17:07:36.089Z,30.14
2022-10-04T17:10:05.500Z,30.27
2022-10-04T17:13:32.136Z,30.12
2022-10-04T17:16:20.385Z,29.77
2022-10-04T17:18:49.756Z,29.61
2022-10-04T17:21:33.797Z,29.31
2022-10-04T17:24:08.025Z,28.85
2022-10-04T17:27:17.651Z,29.05
2022-10-04T17:30:02.703Z,29.49
2022-10-04T17:33:01.195Z,29.41
2022-10-04T17:35:46.988Z,29.57
2022-10-04T17:38:32.967Z,29.59
2022-10-04T17:41:10.673Z,29.51
2022-10-04T17:43:55.960Z,29.46
2022-10-04T17:46:33.711Z,29.45
2022-10-04T17:49:45.653Z,29.37
2022-10-04T17:52:39.529Z,29.46
2022-10-04T17:55:18.452Z,29.47
2022-10-04T17:57:54.212Z,29.06
2022-10-04T18:00:29.224Z,29.28
2022-10-04T18:03:17.454Z,29.41
2022-10-04T18:06:00.698Z,29.14
2022-10-04T18:08:44.108Z,28.59
2022-10-04T18:11:30.519Z,29.05
2022-10-04T18:14:20.636Z,28.59
2022-10-04T18:16:54.735Z,28.71
2022-10-04T18:19:43.077Z,28.81
2022-10-04T18:22:15.988Z,28.90
2022-10-04T18:24:45.304Z,28.85
2022-10-04T18:27:21.454Z,28.60
2022-10-04T18:30:00.627Z,28.41
2022-10-04T18:32:27.213Z,28.45
2022-10-04T18:34:55.667Z,28.59
2022-10-04T18:37:38.721Z,28.62
2022-10-04T18:40:19.147Z,28.54
2022-10-04T18:42:52.407Z,28.55
2022-10-04T18:45:30.925Z,28.35
2022-10-04T18:48:00.690Z,28.32
2022-10-04T18:50:46.966Z,28.28
2022-10-04T18:53:33.039Z,28.28
2022-10-04T18:56:11.717Z,28.10
2022-10-04T18:59:12.053Z,27.98
2022-10-04T19:02:06.362Z,27.59
2022-10-04T19:04:57.313Z,27.82
2022-10-04T19:07:39.363Z,27.60
2022-10-04T19:10:24.689Z,27.28
2022-10-04T19:13:10.101Z,27.55
2022-10-04T19:16:11.684Z,27.47
2022-10-04T19:19:07.554Z,27.59
2022-10-04T19:22:00.008Z,26.95
2022-10-04T19:25:00.310Z,26.33
2022-10-04T19:27:36.201Z,26.93
2022-10-04T19:30:24.261Z,26.74
2022-10-04T19:33:07.232Z,27.37
2022-10-04T19:35:44.805Z,27.06
2022-10-04T19:38:20.221Z,27.32
2022-10-04T19:41:05.014Z,27.55
2022-10-04T19:43:46.072Z,27.55
2022-10-04T19:46:28.399Z,27.33
2022-10-04T19:48:56.019Z,27.02
2022-10-04T19:51:34.257Z,27.33
2022-10-04T19:54:15.869Z,27.37
2022-10-04T19:56:49.121Z,26.88
2022-10-04T19:59:18.579Z,27.25
2022-10-04T20:01:45.824Z,26.92
2022-10-04T20:04:49.783Z,26.73
2022-10-04T20:07:26.455Z,26.58
2022-10-04T20:10:33.718Z,26.28
2022-10-04T20:13:25.304Z,26.08
2022-10-04T20:15:57.929Z,26.22
2022-10-04T20:18:31.653Z,26.72
2022-10-04T20:21:01.351Z,26.67
2022-10-04T20:23:37.608Z,26.50
2022-10-04T20:26:08.833Z,26.93
2022-10-04T20:28:39.962Z,27.00
2022-10-04T20:31:08.741Z,26.98
2022-10-04T20:33:45.493Z,26.57
2022-10-04T20:36:33.199Z,26.81
2022-10-04T20:39:01.879Z,26.88
2022-10-04T20:41:28.361Z,27.07
2022-10-04T20:44:01.825Z,27.02
2022-10-04T20:46:39.647Z,26.79
2022-10-04T20:49:16.256Z,26.34
2022-10-04T20:51:48.411Z,26.29
2022-10-04T20:54:19.867Z,26.27
2022-10-04T20:56:48.429Z,26.59
2022-10-04T20:59:17.085Z,26.60
2022-10-04T21:02:10.302Z,26.48
2022-10-04T21:04:44.343Z,26.49
2022-10-04T21:07:25.769Z,26.17
2022-10-04T21:09:53.239Z,26.01
2022-10-04T21:12:37.935Z,25.57
2022-10-04T21:15:16.364Z,25.55
2022-10-04T21:17:44.961Z,25.59
2022-10-04T21:20:43.324Z,25.78
2022-10-04T21:23:29.723Z,25.73
2022-10-04T21:26:17.914Z,25.91
2022-10-04T21:28:44.625Z,26.11
2022-10-04T21:31:11.202Z,26.14
2022-10-04T21:33:38.526Z,26.03
2022-10-04T21:36:06.108Z,26.16
2022-10-04T21:38:33.023Z,26.32
2022-10-04T21:41:00.019Z,26.33
2022-10-04T21:43:26.985Z,26.36
2022-10-04T21:45:53.952Z,26.04
2022-10-04T21:48:22.984Z,26.18
2022-10-04T21:50:51.538Z,26.13
2022-10-04T21:53:18.732Z,26.27
2022-10-04T21:55:45.449Z,26.14
2022-10-04T21:58:12.348Z,26.10
2022-10-04T22:00:39.086Z,26.15
2022-10-04T22:03:05.902Z,26.04
2022-10-04T22:05:32.557Z,25.66
2022-10-04T22:07:59.649Z,25.73
2022-10-04T22:10:26.484Z,25.68
2022-10-04T22:12:56.777Z,25.69
2022-10-04T22:15:27.478Z,25.60
2022-10-04T22:17:55.108Z,25.65
2022-10-04T22:20:22.771Z,25.76
2022-10-04T22:22:49.321Z,25.34
2022-10-04T22:25:21.717Z,25.63
2022-10-04T22:27:48.789Z,25.60
2022-10-04T22:30:20.341Z,25.78
2022-10-04T22:32:47.015Z,25.83
2022-10-04T22:35:16.135Z,25.23
2022-10-04T22:37:43.426Z,25.48
2022-10-04T22:40:16.037Z,25.56
2022-10-04T22:42:43.087Z,25.52
2022-10-04T22:45:20.294Z,25.60
2022-10-04T22:47:47.024Z,25.99
2022-10-04T22:50:35.897Z,25.78
2022-10-04T22:53:28.744Z,25.77
2022-10-04T22:55:56.173Z,25.63
2022-10-04T22:58:22.751Z,25.49
2022-10-04T23:00:49.803Z,25.54
2022-10-04T23:03:28.805Z,24.96
2022-10-04T23:05:55.561Z,25.11
2022-10-04T23:08:22.155Z,24.58
2022-10-04T23:10:52.665Z,24.53
2022-10-04T23:13:24.650Z,25.09
2022-10-04T23:15:52.666Z,25.23
2022-10-04T23:18:19.334Z,24.96
2022-10-04T23:20:54.317Z,25.26
2022-10-04T23:23:23.466Z,25.38
2022-10-04T23:25:50.891Z,25.08
2022-10-04T23:28:19.078Z,25.46
2022-10-04T23:30:55.581Z,25.54
2022-10-04T23:33:24.037Z,25.73
2022-10-04T23:35:50.909Z,25.37
2022-10-04T23:38:21.188Z,25.41
2022-10-04T23:40:47.822Z,25.09
2022-10-04T23:43:21.521Z,25.36
2022-10-04T23:45:48.466Z,25.09
2022-10-04T23:48:24.877Z,25.37
2022-10-04T23:50:54.217Z,25.24
2022-10-04T23:53:26.961Z,25.40
2022-10-04T23:55:58.972Z,25.47
2022-10-04T23:58:37.503Z,25.24
